Destinations Durham Tees Valley Airport

Durham Tees Valley Airport (EGNV / MME)

Flights to Durham Tees Valley Airport

Flight number From ETE Dispatch
SPY-2260 EGFF Cardiff International Airport 01:10

Flights from Durham Tees Valley Airport

Flight number To ETE Dispatch
SPY-2261 EGFF Cardiff International Airport 01:10
About

Durham Tees Valley Airport facts

Durham Tees Valley Airport is located in Teesside at an elevation of 36.6 meters or 120 feet.

Currently, Speedy Airlines serves 2 flights to and from Durham Tees Valley Airport.

Detailed airport info

Route map

Weather

Current weather

METAR

METAR

Metar data retrieved Sunday, 21 July 2024 at 18:55 UTC

EGNV 211820Z 24011KT 9999 FEW040 17/10 Q1011
Wind Temperature
11 kt 17c